createdAt,value
2017-06-10T00:02:13.052Z,12.90
2017-06-10T00:04:40.827Z,12.90
2017-06-10T00:07:08.316Z,12.90
2017-06-10T00:09:35.839Z,12.80
2017-06-10T00:12:03.703Z,12.70
2017-06-10T00:14:31.192Z,12.70
2017-06-10T00:16:59.303Z,12.70
2017-06-10T00:19:26.795Z,12.60
2017-06-10T00:21:54.554Z,12.60
2017-06-10T00:24:22.211Z,12.50
2017-06-10T00:26:49.724Z,12.40
2017-06-10T00:29:18.024Z,12.30
2017-06-10T00:31:45.578Z,12.30
2017-06-10T00:34:13.091Z,12.30
2017-06-10T00:36:40.645Z,12.20
2017-06-10T00:39:08.319Z,12.30
2017-06-10T00:41:35.809Z,12.20
2017-06-10T00:44:03.320Z,12.10
2017-06-10T00:46:30.977Z,12.10
2017-06-10T00:48:58.807Z,12.10
2017-06-10T00:51:26.357Z,12.10
2017-06-10T00:53:53.907Z,12.10
2017-06-10T00:56:21.399Z,12.10
2017-06-10T00:58:48.939Z,12.10
2017-06-10T01:01:16.427Z,12.10
2017-06-10T01:03:43.919Z,12.10
2017-06-10T01:06:11.455Z,12.00
2017-06-10T01:08:38.991Z,12.00
2017-06-10T01:11:07.167Z,11.90
2017-06-10T01:13:34.969Z,11.90
2017-06-10T01:16:02.475Z,11.80
2017-06-10T01:18:29.967Z,11.70
2017-06-10T01:20:58.240Z,11.60
2017-06-10T01:23:26.520Z,11.50
2017-06-10T01:25:54.102Z,11.50
2017-06-10T01:28:21.623Z,11.40
2017-06-10T01:30:50.146Z,11.30
2017-06-10T01:33:17.650Z,11.30
2017-06-10T01:35:45.168Z,11.30
2017-06-10T01:38:12.715Z,11.30
2017-06-10T01:40:40.319Z,11.20
2017-06-10T01:43:07.979Z,11.20
2017-06-10T01:45:35.582Z,11.20
2017-06-10T01:48:03.111Z,11.10
2017-06-10T01:50:31.651Z,11.00
2017-06-10T01:52:59.394Z,11.00
2017-06-10T01:55:26.974Z,11.00
2017-06-10T01:57:54.480Z,10.90
2017-06-10T02:00:21.996Z,10.90
2017-06-10T02:02:50.040Z,10.90
2017-06-10T02:05:17.795Z,11.00
2017-06-10T02:07:45.315Z,11.00
2017-06-10T02:10:13.016Z,11.00
2017-06-10T02:12:40.566Z,11.00
2017-06-10T02:15:08.282Z,11.10
2017-06-10T02:17:35.784Z,11.00
2017-06-10T02:20:03.343Z,11.00
2017-06-10T02:22:31.075Z,11.00
2017-06-10T02:24:58.571Z,11.00
2017-06-10T02:27:26.075Z,11.00
2017-06-10T02:29:53.601Z,11.00
2017-06-10T02:32:21.111Z,10.90
2017-06-10T02:34:48.651Z,10.90
2017-06-10T02:37:16.176Z,10.90
2017-06-10T02:39:43.663Z,10.90
2017-06-10T02:42:11.475Z,11.00
2017-06-10T02:44:39.019Z,11.00
2017-06-10T02:47:06.533Z,11.00
2017-06-10T02:49:34.130Z,11.00
2017-06-10T02:52:01.773Z,11.10
2017-06-10T02:54:29.335Z,11.10
2017-06-10T02:56:56.842Z,11.20
2017-06-10T02:59:24.482Z,11.20
2017-06-10T03:01:52.032Z,11.30
2017-06-10T03:04:19.616Z,11.40
2017-06-10T03:06:47.148Z,11.50
2017-06-10T03:09:15.023Z,11.60
2017-06-10T03:11:42.682Z,11.60
2017-06-10T03:14:10.177Z,11.70
2017-06-10T03:16:59.357Z,11.80
2017-06-10T03:19:26.895Z,11.70
2017-06-10T03:21:54.707Z,11.80
2017-06-10T03:24:22.426Z,11.80
2017-06-10T03:26:50.855Z,11.70
2017-06-10T03:29:18.347Z,11.70
2017-06-10T03:31:46.091Z,11.70
2017-06-10T03:34:13.580Z,11.70
2017-06-10T03:36:41.860Z,11.70
2017-06-10T03:39:09.443Z,11.70
2017-06-10T03:41:36.935Z,11.70
2017-06-10T03:44:04.545Z,11.80
2017-06-10T03:46:32.074Z,11.80
2017-06-10T03:48:59.687Z,11.80
2017-06-10T03:51:27.335Z,11.80
2017-06-10T03:53:54.843Z,12.00
2017-06-10T03:56:22.402Z,11.90
2017-06-10T03:58:50.750Z,12.00
2017-06-10T04:01:18.263Z,12.10
2017-06-10T04:03:45.763Z,12.20
2017-06-10T04:06:13.340Z,12.40
2017-06-10T04:08:40.891Z,12.60
2017-06-10T04:11:08.408Z,12.80
2017-06-10T04:13:35.896Z,12.90
2017-06-10T04:16:03.454Z,13.00
2017-06-10T04:18:31.055Z,13.10
2017-06-10T04:20:58.651Z,13.20
2017-06-10T04:23:26.171Z,13.30
2017-06-10T04:25:53.731Z,13.40
2017-06-10T04:28:21.528Z,13.40
2017-06-10T04:30:49.387Z,13.70
2017-06-10T04:33:16.931Z,13.90
2017-06-10T04:35:44.483Z,14.00
2017-06-10T04:38:12.003Z,13.80
2017-06-10T04:40:39.490Z,13.80
2017-06-10T04:43:07.030Z,13.90
2017-06-10T04:45:34.546Z,13.80
2017-06-10T04:48:02.132Z,13.70
2017-06-10T04:50:29.623Z,13.80
2017-06-10T04:52:57.136Z,13.90
2017-06-10T04:55:24.651Z,14.00
2017-06-10T04:57:52.421Z,13.80
2017-06-10T05:00:19.959Z,13.90
2017-06-10T05:02:47.466Z,14.20
2017-06-10T05:05:14.991Z,14.50
2017-06-10T05:07:42.569Z,14.60
2017-06-10T05:10:10.556Z,14.50
2017-06-10T05:12:38.044Z,14.50
2017-06-10T05:15:05.551Z,14.80
2017-06-10T05:17:33.061Z,15.60
2017-06-10T05:20:00.575Z,16.40
2017-06-10T05:22:28.402Z,18.10
2017-06-10T05:24:56.390Z,19.60
2017-06-10T05:27:23.921Z,19.90
2017-06-10T05:29:51.694Z,19.80
2017-06-10T05:32:19.200Z,19.40
2017-06-10T05:34:47.455Z,18.20
2017-06-10T05:37:14.968Z,18.20
2017-06-10T05:39:42.496Z,18.00
2017-06-10T05:42:10.242Z,17.60
2017-06-10T05:44:38.524Z,17.50
2017-06-10T05:47:06.035Z,17.50
2017-06-10T05:49:33.582Z,17.60
2017-06-10T05:52:01.107Z,17.80
2017-06-10T05:54:28.643Z,18.90
2017-06-10T05:56:56.223Z,19.50
2017-06-10T05:59:23.845Z,19.70
2017-06-10T06:01:51.339Z,19.90
2017-06-10T06:04:18.883Z,19.20
2017-06-10T06:06:46.464Z,18.70
2017-06-10T06:09:14.072Z,19.20
2017-06-10T06:11:41.588Z,19.50
2017-06-10T06:14:09.087Z,20.10
2017-06-10T06:16:36.592Z,20.20
2017-06-10T06:19:04.080Z,20.50
2017-06-10T06:21:31.965Z,20.10
2017-06-10T06:23:59.486Z,20.00
2017-06-10T06:26:27.319Z,20.40
2017-06-10T06:28:54.803Z,21.00
2017-06-10T06:31:22.516Z,22.10
2017-06-10T06:33:50.046Z,23.50
2017-06-10T06:36:17.676Z,24.10
2017-06-10T11:19:47.765Z,20.90
2017-06-10T11:22:15.308Z,20.90
2017-06-10T11:24:42.799Z,20.80
2017-06-10T11:27:10.284Z,20.70
2017-06-10T11:29:37.859Z,20.50
2017-06-10T11:32:05.397Z,20.40
2017-06-10T11:34:32.987Z,20.40
2017-06-10T11:37:00.517Z,20.80
2017-06-10T11:39:28.031Z,20.70
2017-06-10T11:41:55.772Z,20.20
2017-06-10T11:44:23.322Z,20.10
2017-06-10T11:46:50.865Z,20.50
2017-06-10T11:49:18.356Z,21.00
2017-06-10T11:51:45.892Z,21.30
2017-06-10T11:54:13.455Z,21.40
2017-06-10T11:56:41.027Z,21.70
2017-06-10T11:59:08.835Z,21.70
2017-06-10T12:01:37.152Z,20.40
2017-06-10T12:04:04.691Z,20.40
2017-06-10T12:06:32.244Z,20.20
2017-06-10T12:08:59.743Z,20.10
2017-06-10T12:11:27.280Z,20.10
2017-06-10T12:13:54.833Z,20.20
2017-06-10T12:16:22.482Z,20.50
2017-06-10T12:18:50.020Z,20.80
2017-06-10T12:21:17.813Z,20.80
2017-06-10T12:23:45.370Z,20.60
2017-06-10T12:26:12.900Z,20.40
2017-06-10T12:28:40.799Z,20.10
2017-06-10T12:31:08.380Z,20.10
2017-06-10T12:33:35.871Z,20.10
2017-06-10T12:36:03.405Z,20.60
2017-06-10T12:38:31.330Z,21.00
2017-06-10T12:40:58.904Z,21.10
2017-06-10T12:43:26.391Z,21.00
2017-06-10T12:45:53.941Z,21.00
2017-06-10T12:48:21.769Z,21.50
2017-06-10T12:50:49.311Z,21.90
2017-06-10T12:53:16.827Z,21.90
2017-06-10T12:55:44.319Z,22.00
2017-06-10T12:58:11.899Z,22.00
2017-06-10T13:00:39.461Z,22.00
2017-06-10T13:03:06.987Z,22.00
2017-06-10T13:05:34.508Z,22.20
2017-06-10T13:08:02.783Z,21.90
2017-06-10T13:10:31.051Z,21.60
2017-06-10T13:12:58.612Z,21.60
2017-06-10T13:15:26.136Z,21.70
2017-06-10T13:17:53.989Z,21.50
2017-06-10T13:20:21.547Z,21.50
2017-06-10T13:22:49.116Z,21.80
2017-06-10T13:25:16.684Z,21.90
2017-06-10T13:27:44.175Z,22.10
2017-06-10T13:30:12.490Z,22.60
2017-06-10T13:32:40.363Z,22.60
2017-06-10T13:35:07.941Z,22.30
2017-06-10T13:37:35.432Z,22.40
2017-06-10T13:40:03.784Z,22.30
2017-06-10T13:42:31.300Z,22.30
2017-06-10T13:44:59.180Z,22.30
2017-06-10T13:47:26.715Z,22.00
2017-06-10T13:49:54.228Z,22.00
2017-06-10T13:52:21.731Z,22.00
2017-06-10T13:54:49.331Z,21.90
2017-06-10T13:57:16.920Z,21.50
2017-06-10T13:59:44.419Z,21.30
2017-06-10T14:02:11.987Z,21.10
2017-06-10T14:04:39.484Z,20.80
2017-06-10T14:07:08.113Z,21.10
2017-06-10T14:09:35.644Z,21.00
2017-06-10T14:12:03.203Z,21.50
2017-06-10T14:14:30.769Z,21.90
2017-06-10T14:16:58.324Z,22.20
2017-06-10T14:19:25.832Z,22.40
2017-06-10T14:21:53.383Z,22.70
2017-06-10T14:24:20.965Z,22.90
2017-06-10T14:26:48.599Z,23.10
2017-06-10T14:29:16.608Z,23.20
2017-06-10T14:31:44.505Z,22.90
2017-06-10T14:34:12.974Z,23.10
2017-06-10T14:36:41.283Z,23.50
2017-06-10T14:39:08.830Z,23.50
2017-06-10T14:41:36.411Z,23.10
2017-06-10T14:44:03.921Z,23.20
2017-06-10T14:46:31.469Z,22.90
2017-06-10T14:48:58.955Z,22.30
2017-06-10T14:51:26.723Z,21.70
2017-06-10T14:53:54.568Z,21.50
2017-06-10T14:56:22.057Z,21.30
2017-06-10T14:58:49.575Z,21.20
2017-06-10T15:01:17.067Z,21.00
2017-06-10T15:03:44.655Z,21.10
2017-06-10T15:06:12.151Z,21.10
2017-06-10T15:08:40.015Z,21.30
2017-06-10T15:11:07.513Z,21.20
2017-06-10T15:13:35.090Z,21.40
2017-06-10T15:16:03.607Z,21.70
2017-06-10T15:18:31.095Z,21.70
2017-06-10T15:20:58.603Z,21.80
2017-06-10T15:23:26.488Z,21.70
2017-06-10T15:25:54.055Z,21.80
2017-06-10T15:28:21.693Z,21.90
2017-06-10T15:30:49.495Z,21.70
2017-06-10T15:33:17.171Z,21.70
2017-06-10T15:35:45.475Z,21.60
2017-06-10T15:38:13.367Z,21.60
2017-06-10T15:40:40.925Z,21.40
2017-06-10T15:43:08.441Z,21.50
2017-06-10T15:45:37.059Z,21.90
2017-06-10T15:48:04.587Z,21.80
2017-06-10T15:50:32.086Z,21.90
2017-06-10T15:52:59.635Z,22.00
2017-06-10T15:55:27.144Z,22.00
2017-06-10T15:57:57.764Z,21.50
2017-06-10T16:00:26.352Z,21.50
2017-06-10T16:02:54.693Z,21.80
2017-06-10T16:05:22.768Z,21.80
2017-06-10T16:07:50.315Z,22.00
2017-06-10T16:10:17.888Z,22.20
2017-06-10T16:12:45.407Z,22.30
2017-06-10T16:15:13.278Z,22.20
2017-06-10T16:17:40.768Z,22.30
2017-06-10T16:20:08.359Z,22.00
2017-06-10T16:22:35.876Z,21.60
2017-06-10T16:25:03.745Z,21.10
2017-06-10T16:27:31.231Z,21.00
2017-06-10T16:29:59.603Z,21.10
2017-06-10T16:32:27.115Z,21.10
2017-06-10T16:34:54.634Z,21.10
2017-06-10T16:37:22.939Z,21.00
2017-06-10T16:39:50.463Z,21.30
2017-06-10T16:42:18.209Z,21.10
2017-06-10T16:44:46.610Z,20.30
2017-06-10T16:47:14.131Z,20.30
2017-06-10T16:49:41.692Z,20.40
2017-06-10T16:52:09.257Z,20.30
2017-06-10T16:54:36.798Z,20.30
2017-06-10T16:57:04.503Z,20.50
2017-06-10T16:59:32.047Z,20.80
2017-06-10T17:01:59.560Z,20.90
2017-06-10T17:04:27.057Z,21.00
2017-06-10T17:06:54.583Z,21.10
2017-06-10T17:09:22.124Z,20.90
2017-06-10T17:11:49.646Z,21.00
2017-06-10T17:14:17.179Z,21.00
2017-06-10T17:16:45.438Z,20.30
2017-06-10T17:19:12.969Z,20.30
2017-06-10T17:21:40.503Z,20.40
2017-06-10T17:24:08.019Z,20.40
2017-06-10T17:26:36.329Z,20.10
2017-06-10T17:29:03.975Z,20.10
2017-06-10T17:31:31.642Z,20.10
2017-06-10T17:33:59.419Z,20.00
2017-06-10T17:36:27.183Z,19.90
2017-06-10T17:38:54.671Z,19.80
2017-06-10T17:41:22.188Z,19.60
2017-06-10T17:43:49.704Z,19.60
2017-06-10T17:46:17.516Z,19.70
2017-06-10T17:48:45.004Z,19.70
2017-06-10T17:51:12.836Z,19.70
2017-06-10T17:53:40.515Z,19.70
2017-06-10T17:56:08.797Z,19.60
2017-06-10T17:58:37.374Z,19.40
2017-06-10T18:01:04.878Z,19.50
2017-06-10T18:03:32.447Z,19.50
2017-06-10T18:05:59.992Z,19.50
2017-06-10T18:08:27.630Z,19.40
2017-06-10T18:10:55.892Z,19.30
2017-06-10T18:13:23.439Z,19.30
2017-06-10T18:15:51.178Z,19.20
2017-06-10T18:18:19.021Z,19.20
2017-06-10T18:20:46.800Z,19.20
2017-06-10T18:23:14.560Z,19.20
2017-06-10T18:25:42.083Z,19.20
2017-06-10T18:28:09.619Z,19.20
2017-06-10T18:30:54.580Z,19.10
2017-06-10T18:33:22.202Z,19.10
2017-06-10T18:35:49.783Z,18.90
2017-06-10T18:38:17.307Z,18.80
2017-06-10T18:40:44.800Z,18.60
2017-06-10T18:43:12.291Z,18.40
2017-06-10T18:45:40.140Z,18.20
2017-06-10T18:48:07.637Z,18.20
2017-06-10T18:50:35.512Z,18.10
2017-06-10T18:53:03.005Z,18.00
2017-06-10T18:55:30.827Z,17.90
2017-06-10T18:57:58.591Z,17.80
2017-06-10T19:00:26.136Z,17.70
2017-06-10T19:02:53.689Z,17.70
2017-06-10T19:05:21.195Z,17.70
2017-06-10T19:07:48.731Z,17.60
2017-06-10T19:10:16.264Z,17.50
2017-06-10T19:12:43.779Z,17.40
2017-06-10T19:15:12.070Z,17.40
2017-06-10T19:17:39.584Z,17.40
2017-06-10T19:20:07.219Z,17.40
2017-06-10T19:22:34.727Z,17.20
2017-06-10T19:25:02.545Z,17.10
2017-06-10T19:27:30.051Z,17.10
2017-06-10T19:29:58.368Z,17.00
2017-06-10T19:32:25.915Z,16.90
2017-06-10T19:34:53.411Z,16.90
2017-06-10T19:37:20.940Z,16.90
2017-06-10T19:39:48.436Z,16.80
2017-06-10T19:42:16.163Z,16.80
2017-06-10T19:44:43.672Z,16.80
2017-06-10T19:47:12.016Z,16.60
2017-06-10T19:49:39.543Z,16.60
2017-06-10T19:52:08.330Z,16.60
2017-06-10T19:54:35.878Z,16.60
2017-06-10T19:57:03.379Z,16.60
2017-06-10T19:59:30.969Z,16.60
2017-06-10T20:01:59.257Z,16.50
2017-06-10T20:04:26.829Z,16.50
2017-06-10T20:06:54.547Z,16.40
2017-06-10T20:09:22.192Z,16.40
2017-06-10T20:11:50.026Z,16.40
2017-06-10T20:14:17.787Z,16.40
2017-06-10T20:16:45.319Z,16.30
2017-06-10T20:19:12.872Z,16.30
2017-06-10T20:21:40.403Z,16.30
2017-06-10T20:24:07.956Z,16.30
2017-06-10T20:26:35.507Z,16.30
2017-06-10T20:29:03.236Z,16.30
2017-06-10T20:31:30.896Z,16.30
2017-06-10T20:33:58.659Z,16.30
2017-06-10T20:36:26.256Z,16.20
2017-06-10T20:38:54.083Z,16.10
2017-06-10T20:41:21.955Z,16.10
2017-06-10T20:43:49.490Z,16.00
2017-06-10T20:46:16.991Z,16.00
2017-06-10T20:48:44.510Z,16.00
2017-06-10T20:51:12.015Z,15.90
2017-06-10T20:53:39.529Z,15.90
2017-06-10T20:56:07.079Z,15.80
2017-06-10T20:58:34.659Z,15.80
2017-06-10T21:01:02.549Z,15.70
2017-06-10T21:03:30.324Z,15.70
2017-06-10T21:05:57.867Z,15.70
2017-06-10T21:08:25.374Z,15.60
2017-06-10T21:10:52.891Z,15.60
2017-06-10T21:13:20.392Z,15.50
2017-06-10T21:15:47.993Z,15.50
2017-06-10T21:18:15.515Z,15.50
2017-06-10T21:20:43.149Z,15.40
2017-06-10T21:23:10.672Z,15.40
2017-06-10T21:25:38.190Z,15.40
2017-06-10T21:28:06.070Z,15.40
2017-06-10T21:30:33.888Z,15.40
2017-06-10T21:33:01.675Z,15.30
2017-06-10T21:35:29.193Z,15.20
2017-06-10T21:37:56.906Z,15.10
2017-06-10T21:40:24.655Z,15.00
2017-06-10T21:42:52.189Z,14.90
2017-06-10T21:45:19.704Z,14.80
2017-06-10T21:47:47.223Z,14.80
2017-06-10T21:50:14.752Z,14.70
2017-06-10T21:52:42.491Z,14.60
2017-06-10T21:55:10.767Z,14.50
2017-06-10T21:57:38.459Z,14.40
2017-06-10T22:00:06.005Z,14.40
2017-06-10T22:02:33.495Z,14.20
2017-06-10T22:05:01.031Z,14.10
2017-06-10T22:07:28.808Z,14.00
2017-06-10T22:09:56.428Z,13.80
2017-06-10T22:12:23.922Z,13.70
2017-06-10T22:14:51.500Z,13.60
2017-06-10T22:17:19.035Z,13.50
2017-06-10T22:19:46.575Z,13.40
2017-06-10T22:22:14.091Z,13.40
2017-06-10T22:24:41.715Z,13.40
2017-06-10T22:27:09.223Z,13.40
2017-06-10T22:29:37.330Z,13.40
2017-06-10T22:32:05.375Z,13.40
2017-06-10T22:34:32.907Z,13.30
2017-06-10T22:37:01.240Z,13.20
2017-06-10T22:39:28.779Z,13.20
2017-06-10T22:41:56.355Z,13.20
2017-06-10T22:44:24.116Z,13.30
2017-06-10T22:46:51.605Z,13.20
2017-06-10T22:49:19.443Z,13.10
2017-06-10T22:51:47.195Z,13.00
2017-06-10T22:54:14.760Z,13.00
2017-06-10T22:56:42.251Z,13.00
2017-06-10T22:59:09.776Z,13.00
2017-06-10T23:01:37.268Z,12.90
2017-06-10T23:04:05.558Z,12.90
2017-06-10T23:06:33.119Z,12.90
2017-06-10T23:09:00.620Z,12.90
2017-06-10T23:11:28.195Z,12.90
2017-06-10T23:13:55.694Z,12.90
2017-06-10T23:16:23.244Z,12.80
2017-06-10T23:18:50.731Z,12.80
2017-06-10T23:21:18.267Z,12.80
2017-06-10T23:23:45.776Z,12.80
2017-06-10T23:26:13.524Z,12.80
2017-06-10T23:28:41.048Z,12.90
2017-06-10T23:31:08.606Z,12.90
2017-06-10T23:33:36.140Z,12.90
2017-06-10T23:36:05.187Z,12.90
2017-06-10T23:38:32.742Z,12.90
2017-06-10T23:41:00.245Z,12.90
2017-06-10T23:43:28.539Z,13.00
2017-06-10T23:45:56.027Z,13.00
2017-06-10T23:48:23.561Z,13.00
2017-06-10T23:50:51.099Z,13.10
2017-06-10T23:53:18.591Z,13.10
2017-06-10T23:55:46.147Z,13.10
2017-06-10T23:58:14.031Z,13.20
